createdAt,value
2017-07-29T00:00:53.043Z,91.20
2017-07-29T00:03:19.884Z,91.50
2017-07-29T00:05:46.444Z,91.60
2017-07-29T00:08:12.900Z,91.50
2017-07-29T00:10:39.358Z,91.40
2017-07-29T00:13:05.913Z,91.30
2017-07-29T00:15:32.400Z,91.40
2017-07-29T00:17:58.929Z,91.40
2017-07-29T00:20:25.408Z,91.60
2017-07-29T00:22:51.854Z,91.70
2017-07-29T00:25:18.328Z,91.70
2017-07-29T00:27:44.821Z,91.80
2017-07-29T00:30:11.326Z,91.90
2017-07-29T00:32:37.817Z,91.90
2017-07-29T00:35:04.250Z,91.90
2017-07-29T00:37:30.729Z,92.00
2017-07-29T00:39:57.192Z,92.00
2017-07-29T00:42:24.281Z,92.00
2017-07-29T00:44:50.765Z,92.00
2017-07-29T00:47:17.586Z,92.10
2017-07-29T00:49:44.035Z,92.00
2017-07-29T00:52:10.494Z,92.00
2017-07-29T00:54:36.934Z,92.20
2017-07-29T00:57:03.454Z,92.40
2017-07-29T00:59:29.914Z,92.40
2017-07-29T01:01:56.398Z,92.40
2017-07-29T01:04:22.877Z,92.40
2017-07-29T01:06:49.347Z,92.40
2017-07-29T01:09:15.848Z,92.50
2017-07-29T01:11:42.301Z,92.50
2017-07-29T01:14:08.771Z,92.60
2017-07-29T01:16:35.254Z,92.70
2017-07-29T01:19:01.725Z,92.70
2017-07-29T01:21:28.220Z,92.80
2017-07-29T01:23:54.692Z,92.80
2017-07-29T01:26:21.143Z,92.80
2017-07-29T01:28:47.643Z,92.80
2017-07-29T01:31:14.249Z,92.90
2017-07-29T01:33:41.223Z,92.90
2017-07-29T01:36:07.725Z,93.00
2017-07-29T01:38:34.332Z,93.00
2017-07-29T01:41:00.853Z,93.00
2017-07-29T01:43:27.359Z,93.10
2017-07-29T01:45:53.907Z,93.10
2017-07-29T01:48:20.566Z,93.20
2017-07-29T01:50:47.228Z,93.30
2017-07-29T01:53:13.785Z,93.30
2017-07-29T01:55:40.577Z,93.40
2017-07-29T01:58:07.218Z,93.40
2017-07-29T02:00:33.823Z,93.40
2017-07-29T02:03:00.430Z,93.40
2017-07-29T02:05:26.990Z,93.40
2017-07-29T02:07:54.057Z,93.40
2017-07-29T02:10:20.720Z,93.40
2017-07-29T02:12:47.177Z,93.50
2017-07-29T02:15:13.936Z,93.60
2017-07-29T02:17:40.431Z,93.70
2017-07-29T02:20:06.904Z,93.80
2017-07-29T02:22:33.379Z,93.80
2017-07-29T02:24:59.847Z,93.80
2017-07-29T02:27:27.034Z,94.00
2017-07-29T02:29:53.509Z,93.70
2017-07-29T02:32:20.052Z,93.50
2017-07-29T02:34:46.525Z,93.40
2017-07-29T02:37:13.017Z,93.40
2017-07-29T02:39:39.479Z,93.50
2017-07-29T02:42:05.983Z,93.50
2017-07-29T02:44:32.763Z,93.50
2017-07-29T02:46:59.238Z,93.40
2017-07-29T02:49:25.755Z,93.30
2017-07-29T02:51:52.206Z,93.10
2017-07-29T02:54:19.486Z,93.10
2017-07-29T02:56:45.942Z,93.10
2017-07-29T02:59:12.419Z,92.90
2017-07-29T03:01:38.850Z,93.00
2017-07-29T03:04:06.027Z,93.10
2017-07-29T03:06:32.467Z,93.00
2017-07-29T03:08:59.794Z,93.00
2017-07-29T03:11:26.231Z,93.00
2017-07-29T03:13:52.897Z,93.00
2017-07-29T03:16:19.349Z,92.10
2017-07-29T03:18:45.783Z,92.20
2017-07-29T03:21:13.273Z,92.10
2017-07-29T03:23:40.221Z,92.10
2017-07-29T03:26:07.407Z,91.90
2017-07-29T03:28:34.180Z,91.90
2017-07-29T03:31:00.631Z,92.00
2017-07-29T03:33:27.089Z,91.90
2017-07-29T03:35:53.546Z,91.80
2017-07-29T03:38:19.990Z,91.70
2017-07-29T03:40:46.550Z,91.80
2017-07-29T03:43:13.002Z,91.60
2017-07-29T03:45:40.201Z,91.70
2017-07-29T03:48:06.644Z,91.70
2017-07-29T03:50:33.103Z,92.00
2017-07-29T03:52:59.648Z,91.90
2017-07-29T03:55:26.208Z,92.20
2017-07-29T03:57:52.720Z,92.40
2017-07-29T04:00:19.202Z,93.00
2017-07-29T04:02:46.411Z,93.70
2017-07-29T04:05:12.849Z,93.70
2017-07-29T04:07:39.939Z,94.00
2017-07-29T04:10:06.382Z,94.20
2017-07-29T04:12:32.887Z,94.20
2017-07-29T04:14:59.389Z,94.30
2017-07-29T04:17:25.833Z,94.30
2017-07-29T04:19:53.005Z,93.40
2017-07-29T04:22:20.099Z,93.40
2017-07-29T04:24:46.542Z,93.90
2017-07-29T04:27:13.041Z,94.30
2017-07-29T04:29:39.500Z,94.20
2017-07-29T04:32:05.971Z,93.80
2017-07-29T04:34:32.420Z,93.70
2017-07-29T04:36:59.468Z,93.10
2017-07-29T04:39:26.202Z,93.10
2017-07-29T04:41:52.639Z,92.90
2017-07-29T04:44:19.802Z,92.40
2017-07-29T04:46:46.389Z,92.00
2017-07-29T04:49:12.858Z,91.30
2017-07-29T04:51:39.303Z,91.10
2017-07-29T04:54:05.773Z,91.10
2017-07-29T04:56:32.524Z,90.20
2017-07-29T04:58:58.982Z,89.00
2017-07-29T05:01:25.428Z,88.90
2017-07-29T05:03:53.045Z,87.80
2017-07-29T05:06:19.489Z,87.70
2017-07-29T05:08:45.948Z,86.30
2017-07-29T05:11:12.485Z,82.60
2017-07-29T05:13:38.969Z,77.70
2017-07-29T05:16:05.434Z,72.10
2017-07-29T05:18:31.923Z,67.50
2017-07-29T05:20:58.608Z,62.40
2017-07-29T05:23:25.780Z,54.70
2017-07-29T05:25:52.992Z,52.30
2017-07-29T05:28:19.414Z,52.30
2017-07-29T05:30:45.878Z,49.90
2017-07-29T05:33:12.305Z,47.60
2017-07-29T05:35:38.758Z,46.10
2017-07-29T05:38:05.161Z,44.50
2017-07-29T05:40:32.002Z,44.90
2017-07-29T05:42:58.465Z,44.80
2017-07-29T05:45:25.079Z,45.00
2017-07-29T05:47:51.504Z,45.60
2017-07-29T05:50:17.958Z,43.80
2017-07-29T05:52:44.487Z,42.40
2017-07-29T05:55:11.763Z,39.20
2017-07-29T05:57:38.257Z,39.20
2017-07-29T06:00:04.933Z,38.10
2017-07-29T06:02:31.397Z,36.50
2017-07-29T06:04:57.878Z,35.60
2017-07-29T06:07:25.232Z,34.40
2017-07-29T06:09:51.790Z,34.40
2017-07-29T06:12:18.407Z,33.50
2017-07-29T06:14:44.944Z,32.70
2017-07-29T06:17:12.394Z,30.90
2017-07-29T06:19:39.124Z,30.90
2017-07-29T06:22:05.765Z,30.80
2017-07-29T06:24:32.386Z,30.40
2017-07-29T06:26:58.944Z,29.90
2017-07-29T06:29:26.283Z,29.10
2017-07-29T06:31:52.794Z,28.80
2017-07-29T06:34:19.354Z,30.00
2017-07-29T06:36:46.884Z,30.60
2017-07-29T06:39:13.531Z,30.50
2017-07-29T06:41:40.992Z,29.00
2017-07-29T06:44:07.433Z,28.40
2017-07-29T06:46:34.057Z,28.10
2017-07-29T06:49:00.530Z,28.10
2017-07-29T06:51:27.113Z,28.20
2017-07-29T06:53:54.215Z,28.00
2017-07-29T06:56:21.197Z,27.50
2017-07-29T06:58:47.822Z,27.20
2017-07-29T07:01:14.619Z,27.10
2017-07-29T07:03:41.863Z,26.70
2017-07-29T07:06:08.871Z,26.70
2017-07-29T07:08:36.191Z,26.70
2017-07-29T07:11:04.106Z,26.50
2017-07-29T07:13:30.580Z,26.50
2017-07-29T07:15:57.185Z,26.50
2017-07-29T07:18:23.792Z,26.10
2017-07-29T07:20:50.476Z,26.40
2017-07-29T07:23:17.064Z,26.30
2017-07-29T07:25:43.500Z,26.10
2017-07-29T07:28:09.972Z,26.10
2017-07-29T07:30:37.700Z,25.90
2017-07-29T07:33:04.524Z,25.90
2017-07-29T07:35:32.353Z,24.70
2017-07-29T07:37:58.870Z,24.70
2017-07-29T07:40:25.562Z,24.70
2017-07-29T07:42:52.099Z,24.80
2017-07-29T07:45:18.742Z,24.80
2017-07-29T07:47:45.443Z,24.50
2017-07-29T07:50:12.183Z,24.30
2017-07-29T07:52:38.699Z,24.60
2017-07-29T07:55:05.787Z,24.50
2017-07-29T07:57:33.011Z,24.00
2017-07-29T08:00:00.390Z,23.80
2017-07-29T08:02:26.873Z,23.60
2017-07-29T08:04:54.345Z,23.60
2017-07-29T08:07:21.672Z,23.60
2017-07-29T08:09:49.404Z,23.50
2017-07-29T08:12:16.352Z,23.50
2017-07-29T08:14:44.028Z,23.90
2017-07-29T08:17:10.687Z,25.00
2017-07-29T08:19:37.178Z,26.00
2017-07-29T08:22:04.441Z,29.70
2017-07-29T08:24:31.166Z,29.20
2017-07-29T08:26:57.790Z,29.80
2017-07-29T08:29:24.459Z,31.20
2017-07-29T08:31:51.762Z,32.60
2017-07-29T08:34:19.237Z,32.50
2017-07-29T08:36:46.675Z,32.70
2017-07-29T08:39:13.589Z,32.60
2017-07-29T08:41:40.088Z,33.00
2017-07-29T08:44:06.835Z,33.60
2017-07-29T08:46:33.341Z,34.30
2017-07-29T08:49:00.161Z,35.30
2017-07-29T08:51:27.019Z,36.20
2017-07-29T08:53:53.969Z,37.30
2017-07-29T08:56:21.181Z,37.30
2017-07-29T08:58:48.978Z,39.40
2017-07-29T09:01:15.720Z,39.30
2017-07-29T09:03:42.300Z,40.10
2017-07-29T09:06:09.312Z,40.40
2017-07-29T09:08:36.442Z,41.50
2017-07-29T09:11:04.280Z,40.90
2017-07-29T09:13:31.082Z,40.60
2017-07-29T09:15:58.331Z,41.70
2017-07-29T09:18:25.680Z,41.70
2017-07-29T09:20:52.389Z,41.90
2017-07-29T09:23:19.005Z,42.60
2017-07-29T09:25:45.765Z,43.60
2017-07-29T09:28:13.020Z,44.80
2017-07-29T09:30:40.280Z,45.70
2017-07-29T09:33:06.910Z,46.60
2017-07-29T09:35:34.476Z,47.20
2017-07-29T09:38:02.138Z,46.90
2017-07-29T09:40:30.349Z,47.10
2017-07-29T09:42:57.473Z,47.60
2017-07-29T09:45:25.707Z,48.70
2017-07-29T09:47:52.493Z,48.70
2017-07-29T09:50:19.134Z,49.10
2017-07-29T09:52:45.609Z,50.00
2017-07-29T09:55:12.709Z,50.30
2017-07-29T09:57:39.935Z,50.60
2017-07-29T10:00:06.440Z,50.60
2017-07-29T10:02:34.803Z,50.70
2017-07-29T10:05:01.279Z,50.60
2017-07-29T10:07:28.024Z,50.80
2017-07-29T10:09:54.676Z,50.80
2017-07-29T10:12:21.216Z,50.80
2017-07-29T10:14:48.030Z,51.10
2017-07-29T10:17:15.294Z,52.10
2017-07-29T10:19:43.266Z,52.00
2017-07-29T10:22:11.436Z,52.50
2017-07-29T10:24:38.789Z,52.50
2017-07-29T10:27:05.387Z,52.50
2017-07-29T10:29:32.046Z,52.50
2017-07-29T10:31:58.694Z,52.50
2017-07-29T10:34:26.346Z,51.50
2017-07-29T10:36:54.101Z,51.50
2017-07-29T10:39:20.567Z,50.60
2017-07-29T10:41:47.863Z,50.20
2017-07-29T10:44:15.073Z,51.20
2017-07-29T10:46:41.529Z,51.10
2017-07-29T10:49:09.249Z,51.50
2017-07-29T10:51:35.895Z,51.50
2017-07-29T10:54:02.635Z,50.80
2017-07-29T10:56:30.161Z,49.50
2017-07-29T10:58:56.710Z,49.50
2017-07-29T11:01:23.673Z,49.90
2017-07-29T11:03:50.604Z,49.50
2017-07-29T11:06:17.662Z,49.80
2017-07-29T11:08:44.982Z,51.10
2017-07-29T11:11:12.082Z,51.00
2017-07-29T11:13:38.702Z,50.50
2017-07-29T11:16:06.238Z,51.70
2017-07-29T11:18:33.522Z,51.20
2017-07-29T11:21:00.244Z,50.60
2017-07-29T11:23:26.870Z,50.10
2017-07-29T11:25:53.568Z,49.80
2017-07-29T11:28:20.024Z,49.10
2017-07-29T11:30:46.810Z,49.40
2017-07-29T11:33:13.661Z,49.10
2017-07-29T11:35:40.575Z,48.70
2017-07-29T11:38:08.099Z,48.90
2017-07-29T11:40:34.597Z,48.10
2017-07-29T11:43:02.025Z,48.20
2017-07-29T11:45:29.013Z,48.20
2017-07-29T11:47:57.161Z,48.90
2017-07-29T11:50:23.715Z,48.60
2017-07-29T11:52:50.977Z,49.50
2017-07-29T11:55:17.438Z,49.40
2017-07-29T11:57:43.891Z,49.90
2017-07-29T12:00:11.299Z,49.40
2017-07-29T12:02:38.092Z,49.30
2017-07-29T12:05:04.943Z,48.80
2017-07-29T12:07:31.885Z,49.00
2017-07-29T12:09:59.139Z,49.70
2017-07-29T12:12:26.591Z,50.30
2017-07-29T12:14:53.592Z,50.30
2017-07-29T12:17:20.482Z,50.00
2017-07-29T12:19:47.148Z,50.00
2017-07-29T12:22:13.852Z,50.10
2017-07-29T12:24:40.903Z,49.70
2017-07-29T12:27:07.434Z,49.30
2017-07-29T12:29:34.113Z,49.60
2017-07-29T12:32:00.865Z,49.60
2017-07-29T12:34:27.417Z,49.00
2017-07-29T12:36:53.973Z,49.10
2017-07-29T12:39:20.514Z,49.40
2017-07-29T12:41:47.302Z,48.80
2017-07-29T12:44:13.989Z,49.10
2017-07-29T12:46:41.026Z,49.60
2017-07-29T12:49:07.788Z,50.50
2017-07-29T12:51:34.462Z,50.30
2017-07-29T12:54:01.928Z,49.90
2017-07-29T12:56:28.437Z,49.70
2017-07-29T12:58:55.784Z,48.90
2017-07-29T13:01:22.278Z,48.90
2017-07-29T13:03:49.728Z,49.90
2017-07-29T13:06:16.302Z,49.90
2017-07-29T13:08:43.020Z,49.90
2017-07-29T13:11:10.045Z,50.80
2017-07-29T13:13:37.272Z,50.50
2017-07-29T13:16:04.228Z,50.40
2017-07-29T13:18:31.710Z,50.80
2017-07-29T13:20:58.878Z,51.00
2017-07-29T13:23:25.753Z,50.90
2017-07-29T13:25:52.304Z,50.30
2017-07-29T13:28:18.863Z,50.10
2017-07-29T13:30:45.546Z,49.40
2017-07-29T13:33:12.015Z,48.70
2017-07-29T13:35:38.483Z,48.30
2017-07-29T13:38:06.271Z,49.40
2017-07-29T13:40:32.886Z,49.30
2017-07-29T13:42:59.668Z,49.50
2017-07-29T13:45:27.506Z,49.40
2017-07-29T13:47:54.401Z,49.00
2017-07-29T13:50:20.977Z,49.10
2017-07-29T13:52:48.141Z,48.60
2017-07-29T13:55:14.980Z,48.90
2017-07-29T13:57:42.167Z,48.40
2017-07-29T14:00:09.956Z,48.30
2017-07-29T14:02:36.482Z,48.30
2017-07-29T14:05:03.176Z,49.00
2017-07-29T14:07:30.044Z,48.90
2017-07-29T14:09:56.569Z,48.80
2017-07-29T14:12:23.399Z,48.90
2017-07-29T14:14:49.927Z,48.80
2017-07-29T14:17:16.408Z,48.50
2017-07-29T14:19:43.294Z,48.40
2017-07-29T14:22:10.065Z,48.60
2017-07-29T14:24:37.724Z,48.40
2017-07-29T14:27:04.489Z,48.40
2017-07-29T14:29:31.709Z,47.80
2017-07-29T14:31:58.325Z,47.90
2017-07-29T14:34:25.155Z,48.30
2017-07-29T14:36:52.033Z,48.40
2017-07-29T14:39:18.522Z,48.70
2017-07-29T14:41:46.923Z,48.10
2017-07-29T14:44:13.411Z,48.10
2017-07-29T14:46:40.297Z,48.50
2017-07-29T14:49:07.342Z,48.80
2017-07-29T14:51:33.965Z,49.00
2017-07-29T14:54:00.440Z,48.30
2017-07-29T14:56:27.877Z,48.80
2017-07-29T14:58:54.506Z,48.10
2017-07-29T15:01:21.657Z,48.50
2017-07-29T15:03:48.396Z,48.20
2017-07-29T15:06:15.264Z,48.40
2017-07-29T15:08:41.996Z,48.60
2017-07-29T15:11:08.552Z,48.50
2017-07-29T15:13:35.968Z,48.60
2017-07-29T15:16:02.794Z,48.60
2017-07-29T15:18:29.755Z,48.50
2017-07-29T15:20:57.722Z,49.20
2017-07-29T15:23:24.871Z,49.80
2017-07-29T15:25:51.855Z,49.80
2017-07-29T15:28:18.696Z,49.10
2017-07-29T15:30:45.131Z,48.10
2017-07-29T15:33:11.583Z,48.50
2017-07-29T15:35:38.437Z,49.00
2017-07-29T15:38:04.862Z,48.60
2017-07-29T15:40:31.458Z,47.70
2017-07-29T15:42:57.961Z,47.90
2017-07-29T15:45:25.427Z,48.20
2017-07-29T15:47:52.067Z,48.20
2017-07-29T15:50:19.317Z,48.20
2017-07-29T15:52:46.878Z,48.90
2017-07-29T15:55:13.714Z,48.90
2017-07-29T15:57:41.174Z,49.10
2017-07-29T16:00:08.044Z,49.20
2017-07-29T16:02:35.572Z,49.10
2017-07-29T16:05:02.490Z,49.00
2017-07-29T16:07:29.152Z,48.80
2017-07-29T16:09:55.615Z,48.60
2017-07-29T16:12:22.956Z,49.00
2017-07-29T16:14:49.464Z,49.50
2017-07-29T16:17:16.875Z,50.50
2017-07-29T16:19:43.669Z,50.00
2017-07-29T16:22:10.412Z,49.60
2017-07-29T16:24:36.942Z,49.70
2017-07-29T16:27:04.094Z,50.40
2017-07-29T16:29:30.833Z,50.20
2017-07-29T16:31:57.975Z,50.20
2017-07-29T16:34:24.929Z,50.30
2017-07-29T16:36:51.505Z,50.30
2017-07-29T16:39:18.377Z,50.70
2017-07-29T16:41:46.237Z,51.00
2017-07-29T16:44:12.818Z,50.90
2017-07-29T16:46:39.286Z,51.30
2017-07-29T16:49:05.998Z,51.50
2017-07-29T16:51:33.537Z,52.80
2017-07-29T16:54:00.188Z,52.40
2017-07-29T16:56:26.739Z,52.70
2017-07-29T16:58:53.588Z,52.90
2017-07-29T17:01:20.778Z,53.10
2017-07-29T17:03:47.568Z,53.10
2017-07-29T17:06:14.331Z,53.30
2017-07-29T17:08:40.815Z,53.40
2017-07-29T17:11:08.340Z,53.70
2017-07-29T17:13:35.133Z,53.70
2017-07-29T17:16:01.575Z,53.90
2017-07-29T17:18:28.591Z,54.10
2017-07-29T17:20:55.650Z,54.40
2017-07-29T17:23:23.309Z,54.30
2017-07-29T17:25:49.923Z,54.00
2017-07-29T17:28:16.927Z,54.30
2017-07-29T17:30:43.583Z,54.70
2017-07-29T17:33:10.233Z,54.80
2017-07-29T17:35:36.769Z,55.00
2017-07-29T17:38:03.211Z,55.40
2017-07-29T17:40:29.678Z,55.70
2017-07-29T17:42:57.108Z,56.00
2017-07-29T17:45:23.700Z,56.40
2017-07-29T17:47:51.112Z,57.10
2017-07-29T17:50:25.526Z,57.10
2017-07-29T17:52:53.127Z,57.00
2017-07-29T17:55:20.030Z,57.00
2017-07-29T17:57:46.665Z,57.60
2017-07-29T18:00:13.403Z,57.80
2017-07-29T18:02:40.898Z,58.20
2017-07-29T18:05:07.910Z,58.50
2017-07-29T18:07:36.387Z,59.80
2017-07-29T18:10:03.026Z,59.30
2017-07-29T18:12:29.765Z,59.60
2017-07-29T18:14:56.451Z,60.00
2017-07-29T18:17:23.011Z,61.50
2017-07-29T18:19:49.439Z,61.30
2017-07-29T18:22:16.231Z,62.20
2017-07-29T18:24:42.696Z,62.90
2017-07-29T18:27:09.385Z,63.70
2017-07-29T18:29:36.668Z,65.30
2017-07-29T18:32:03.957Z,64.60
2017-07-29T18:34:31.371Z,66.50
2017-07-29T18:36:57.936Z,66.50
2017-07-29T18:39:24.624Z,67.40
2017-07-29T18:41:51.102Z,68.30
2017-07-29T18:44:18.430Z,70.00
2017-07-29T18:46:46.161Z,70.50
2017-07-29T18:49:13.639Z,71.30
2017-07-29T18:51:40.281Z,71.30
2017-07-29T18:54:06.816Z,72.30
2017-07-29T18:56:33.319Z,72.90
2017-07-29T18:59:00.509Z,73.70
2017-07-29T19:01:27.063Z,74.40
2017-07-29T19:03:53.668Z,75.10
2017-07-29T19:06:20.470Z,75.90
2017-07-29T19:08:47.202Z,76.60
2017-07-29T19:11:14.279Z,77.30
2017-07-29T19:13:41.269Z,77.80
2017-07-29T19:16:07.993Z,78.20
2017-07-29T19:18:34.763Z,78.70
2017-07-29T19:21:01.312Z,79.40
2017-07-29T19:23:28.511Z,80.40
2017-07-29T19:25:55.383Z,80.40
2017-07-29T19:28:22.595Z,81.20
2017-07-29T19:30:49.235Z,81.20
2017-07-29T19:33:16.606Z,82.00
2017-07-29T19:35:43.063Z,82.00
2017-07-29T19:38:09.962Z,82.10
2017-07-29T19:40:36.899Z,82.40
2017-07-29T19:43:03.519Z,83.20
2017-07-29T19:45:30.061Z,83.70
2017-07-29T19:47:56.664Z,84.10
2017-07-29T19:50:23.890Z,84.30
2017-07-29T19:52:52.013Z,84.40
2017-07-29T19:55:18.771Z,84.90
2017-07-29T19:57:45.300Z,85.20
2017-07-29T20:00:12.142Z,85.30
2017-07-29T20:02:39.394Z,86.10
2017-07-29T20:05:06.222Z,86.00
2017-07-29T20:07:33.888Z,86.90
2017-07-29T20:10:00.737Z,86.70
2017-07-29T20:12:28.384Z,88.00
2017-07-29T20:14:56.163Z,87.20
2017-07-29T20:17:22.993Z,87.70
2017-07-29T20:19:49.749Z,87.90
2017-07-29T20:22:16.210Z,88.30
2017-07-29T20:24:43.232Z,88.40
2017-07-29T20:27:09.868Z,88.60
2017-07-29T20:29:36.869Z,89.00
2017-07-29T20:32:04.645Z,89.50
2017-07-29T20:34:31.322Z,89.40
2017-07-29T20:36:57.838Z,89.70
2017-07-29T20:39:24.332Z,90.00
2017-07-29T20:41:51.021Z,90.10
2017-07-29T20:44:17.652Z,90.10
2017-07-29T20:46:44.186Z,90.30
2017-07-29T20:49:10.862Z,90.40
2017-07-29T20:51:37.376Z,90.40
2017-07-29T20:54:04.674Z,90.60
2017-07-29T20:56:31.194Z,90.60
2017-07-29T20:58:57.891Z,90.70
2017-07-29T21:01:25.470Z,90.80
2017-07-29T21:03:52.111Z,90.80
2017-07-29T21:06:19.319Z,91.40
2017-07-29T21:08:46.071Z,91.10
2017-07-29T21:11:13.065Z,91.10
2017-07-29T21:13:39.982Z,91.20
2017-07-29T21:16:06.577Z,91.40
2017-07-29T21:18:33.220Z,91.40
2017-07-29T21:20:59.997Z,91.40
2017-07-29T21:23:26.503Z,91.40
2017-07-29T21:25:52.963Z,91.50
2017-07-29T21:28:19.903Z,91.50
2017-07-29T21:30:46.543Z,91.90
2017-07-29T21:33:13.184Z,91.60
2017-07-29T21:35:41.160Z,91.70
2017-07-29T21:38:07.636Z,91.70
2017-07-29T21:40:34.698Z,91.80
2017-07-29T21:43:01.932Z,92.00
2017-07-29T21:45:29.544Z,91.70
2017-07-29T21:47:56.731Z,92.10
2017-07-29T21:50:23.168Z,92.10
2017-07-29T21:52:49.702Z,92.20
2017-07-29T21:55:17.069Z,92.30
2017-07-29T21:57:43.935Z,92.40
2017-07-29T22:00:10.509Z,92.40
2017-07-29T22:02:37.513Z,92.50
2017-07-29T22:05:04.196Z,92.50
2017-07-29T22:07:31.281Z,92.50
2017-07-29T22:09:57.743Z,92.60
2017-07-29T22:12:25.360Z,92.60
2017-07-29T22:14:52.250Z,92.60
2017-07-29T22:17:18.804Z,92.70
2017-07-29T22:19:45.313Z,92.70
2017-07-29T22:22:11.865Z,92.80
2017-07-29T22:24:38.622Z,92.90
2017-07-29T22:27:05.148Z,93.00
2017-07-29T22:29:32.212Z,93.10
2017-07-29T22:31:59.080Z,93.10
2017-07-29T22:34:25.636Z,93.20
2017-07-29T22:36:52.554Z,93.30
2017-07-29T22:39:20.040Z,93.10
2017-07-29T22:41:46.640Z,93.30
2017-07-29T22:44:13.404Z,93.40
2017-07-29T22:46:40.099Z,93.50
2017-07-29T22:49:06.960Z,93.60
2017-07-29T22:51:34.527Z,93.70
2017-07-29T22:54:01.417Z,93.70
2017-07-29T22:56:28.379Z,93.80
2017-07-29T22:58:55.042Z,93.80
2017-07-29T23:01:21.712Z,93.90
2017-07-29T23:03:48.185Z,93.90
2017-07-29T23:06:14.921Z,93.80
2017-07-29T23:08:41.572Z,93.90
2017-07-29T23:11:08.309Z,94.00
2017-07-29T23:13:35.005Z,94.10
2017-07-29T23:16:01.530Z,94.20
2017-07-29T23:18:28.198Z,94.20
2017-07-29T23:20:55.016Z,94.20
2017-07-29T23:23:22.180Z,94.20
2017-07-29T23:25:48.817Z,94.20
2017-07-29T23:28:15.560Z,94.20
2017-07-29T23:30:42.188Z,94.20
2017-07-29T23:33:09.148Z,94.30
2017-07-29T23:35:37.003Z,94.40
2017-07-29T23:38:03.948Z,94.50
2017-07-29T23:40:31.120Z,94.60
2017-07-29T23:42:58.147Z,94.70
2017-07-29T23:45:25.430Z,94.70
2017-07-29T23:48:07.889Z,94.80
2017-07-29T23:50:36.464Z,94.70
2017-07-29T23:53:03.250Z,94.70
2017-07-29T23:55:29.739Z,94.80
2017-07-29T23:57:56.311Z,94.90
